sensor_id;sensor_type;location;lat;lon;timestamp;P1;durP1;ratioP1;P2;durP2;ratioP2
43809;SDS011;29440;48.208;11.162;2022-12-22T00:02:33;2.65;;;1.20;;
43809;SDS011;29440;48.208;11.162;2022-12-22T00:05:18;4.43;;;1.30;;
43809;SDS011;29440;48.208;11.162;2022-12-22T00:08:04;2.00;;;1.30;;
43809;SDS011;29440;48.208;11.162;2022-12-22T00:10:49;1.75;;;1.02;;
43809;SDS011;29440;48.208;11.162;2022-12-22T00:13:34;5.65;;;1.50;;
43809;SDS011;29440;48.208;11.162;2022-12-22T00:16:19;3.65;;;1.73;;
43809;SDS011;29440;48.208;11.162;2022-12-22T00:19:09;2.65;;;1.65;;
43809;SDS011;29440;48.208;11.162;2022-12-22T00:22:00;2.10;;;1.23;;
43809;SDS011;29440;48.208;11.162;2022-12-22T00:25:02;4.95;;;1.60;;
43809;SDS011;29440;48.208;11.162;2022-12-22T00:27:47;3.45;;;1.35;;
43809;SDS011;29440;48.208;11.162;2022-12-22T00:30:31;4.18;;;1.58;;
43809;SDS011;29440;48.208;11.162;2022-12-22T00:33:15;3.30;;;1.77;;
43809;SDS011;29440;48.208;11.162;2022-12-22T00:36:02;4.90;;;1.50;;
43809;SDS011;29440;48.208;11.162;2022-12-22T00:38:47;4.25;;;1.58;;
43809;SDS011;29440;48.208;11.162;2022-12-22T00:41:31;2.42;;;1.63;;
43809;SDS011;29440;48.208;11.162;2022-12-22T00:44:15;3.60;;;1.55;;
43809;SDS011;29440;48.208;11.162;2022-12-22T00:46:59;2.78;;;1.58;;
43809;SDS011;29440;48.208;11.162;2022-12-22T00:49:43;2.00;;;1.30;;
43809;SDS011;29440;48.208;11.162;2022-12-22T00:52:29;5.18;;;1.60;;
43809;SDS011;29440;48.208;11.162;2022-12-22T00:55:14;2.15;;;1.25;;
43809;SDS011;29440;48.208;11.162;2022-12-22T00:58:00;3.10;;;1.20;;
43809;SDS011;29440;48.208;11.162;2022-12-22T01:00:46;3.00;;;1.40;;
43809;SDS011;29440;48.208;11.162;2022-12-22T01:03:30;2.47;;;1.58;;
43809;SDS011;29440;48.208;11.162;2022-12-22T01:06:14;3.08;;;1.30;;
43809;SDS011;29440;48.208;11.162;2022-12-22T01:08:58;2.40;;;1.20;;
43809;SDS011;29440;48.208;11.162;2022-12-22T01:11:42;2.08;;;1.13;;
43809;SDS011;29440;48.208;11.162;2022-12-22T01:14:26;2.22;;;0.93;;
43809;SDS011;29440;48.208;11.162;2022-12-22T01:17:11;1.75;;;0.98;;
43809;SDS011;29440;48.208;11.162;2022-12-22T01:19:55;3.75;;;1.05;;
43809;SDS011;29440;48.208;11.162;2022-12-22T01:22:39;2.00;;;1.10;;
43809;SDS011;29440;48.208;11.162;2022-12-22T01:28:12;1.77;;;1.00;;
43809;SDS011;29440;48.208;11.162;2022-12-22T01:30:58;2.67;;;1.08;;
43809;SDS011;29440;48.208;11.162;2022-12-22T01:33:59;1.98;;;1.13;;
43809;SDS011;29440;48.208;11.162;2022-12-22T01:36:43;4.47;;;1.00;;
43809;SDS011;29440;48.208;11.162;2022-12-22T01:39:27;2.17;;;0.98;;
43809;SDS011;29440;48.208;11.162;2022-12-22T01:42:11;2.70;;;0.90;;
43809;SDS011;29440;48.208;11.162;2022-12-22T01:44:57;2.83;;;1.02;;
43809;SDS011;29440;48.208;11.162;2022-12-22T01:47:45;3.75;;;1.30;;
43809;SDS011;29440;48.208;11.162;2022-12-22T01:50:30;2.35;;;1.08;;
43809;SDS011;29440;48.208;11.162;2022-12-22T01:53:20;3.63;;;1.10;;
43809;SDS011;29440;48.208;11.162;2022-12-22T01:56:06;2.40;;;1.20;;
43809;SDS011;29440;48.208;11.162;2022-12-22T01:58:51;1.67;;;1.00;;
43809;SDS011;29440;48.208;11.162;2022-12-22T02:01:38;2.72;;;1.08;;
43809;SDS011;29440;48.208;11.162;2022-12-22T02:04:23;2.42;;;1.20;;
43809;SDS011;29440;48.208;11.162;2022-12-22T02:07:13;2.15;;;1.05;;
43809;SDS011;29440;48.208;11.162;2022-12-22T02:10:13;1.90;;;1.05;;
43809;SDS011;29440;48.208;11.162;2022-12-22T02:19:16;2.03;;;0.90;;
43809;SDS011;29440;48.208;11.162;2022-12-22T02:22:42;5.72;;;0.90;;
43809;SDS011;29440;48.208;11.162;2022-12-22T02:25:54;2.55;;;0.90;;
43809;SDS011;29440;48.208;11.162;2022-12-22T02:28:42;3.55;;;1.05;;
43809;SDS011;29440;48.208;11.162;2022-12-22T02:31:33;1.27;;;0.88;;
43809;SDS011;29440;48.208;11.162;2022-12-22T02:34:21;1.75;;;1.00;;
43809;SDS011;29440;48.208;11.162;2022-12-22T02:40:09;2.67;;;1.13;;
43809;SDS011;29440;48.208;11.162;2022-12-22T02:49:25;3.15;;;1.00;;
43809;SDS011;29440;48.208;11.162;2022-12-22T02:52:15;2.13;;;0.82;;
43809;SDS011;29440;48.208;11.162;2022-12-22T02:55:03;2.15;;;0.90;;
43809;SDS011;29440;48.208;11.162;2022-12-22T02:57:49;2.80;;;0.98;;
43809;SDS011;29440;48.208;11.162;2022-12-22T03:00:34;2.83;;;1.00;;
43809;SDS011;29440;48.208;11.162;2022-12-22T03:03:19;1.85;;;0.80;;
43809;SDS011;29440;48.208;11.162;2022-12-22T03:06:03;2.75;;;0.93;;
43809;SDS011;29440;48.208;11.162;2022-12-22T03:08:47;1.30;;;0.60;;
43809;SDS011;29440;48.208;11.162;2022-12-22T03:11:31;2.03;;;0.73;;
43809;SDS011;29440;48.208;11.162;2022-12-22T03:14:15;2.72;;;0.95;;
43809;SDS011;29440;48.208;11.162;2022-12-22T03:16:59;2.15;;;0.88;;
43809;SDS011;29440;48.208;11.162;2022-12-22T03:19:43;2.53;;;0.68;;
43809;SDS011;29440;48.208;11.162;2022-12-22T03:22:27;2.00;;;1.00;;
43809;SDS011;29440;48.208;11.162;2022-12-22T03:25:12;1.38;;;0.60;;
43809;SDS011;29440;48.208;11.162;2022-12-22T03:28:06;1.65;;;0.70;;
43809;SDS011;29440;48.208;11.162;2022-12-22T03:30:32;2.00;;;0.77;;
43809;SDS011;29440;48.208;11.162;2022-12-22T03:32:58;2.97;;;0.95;;
43809;SDS011;29440;48.208;11.162;2022-12-22T03:35:24;1.67;;;1.10;;
43809;SDS011;29440;48.208;11.162;2022-12-22T03:37:50;1.98;;;1.20;;
43809;SDS011;29440;48.208;11.162;2022-12-22T03:40:16;4.30;;;1.00;;
43809;SDS011;29440;48.208;11.162;2022-12-22T03:42:41;0.93;;;0.63;;
43809;SDS011;29440;48.208;11.162;2022-12-22T03:45:25;2.38;;;0.65;;
43809;SDS011;29440;48.208;11.162;2022-12-22T03:48:09;1.48;;;0.60;;
43809;SDS011;29440;48.208;11.162;2022-12-22T03:50:35;1.77;;;0.52;;
43809;SDS011;29440;48.208;11.162;2022-12-22T03:53:01;1.50;;;0.65;;
43809;SDS011;29440;48.208;11.162;2022-12-22T03:55:27;3.15;;;0.63;;
43809;SDS011;29440;48.208;11.162;2022-12-22T03:57:52;1.67;;;0.93;;
43809;SDS011;29440;48.208;11.162;2022-12-22T04:00:18;2.60;;;1.00;;
43809;SDS011;29440;48.208;11.162;2022-12-22T04:02:43;1.83;;;0.70;;
43809;SDS011;29440;48.208;11.162;2022-12-22T04:05:09;3.35;;;0.70;;
43809;SDS011;29440;48.208;11.162;2022-12-22T04:07:35;2.97;;;0.60;;
43809;SDS011;29440;48.208;11.162;2022-12-22T04:10:00;3.45;;;0.50;;
43809;SDS011;29440;48.208;11.162;2022-12-22T04:12:45;1.10;;;0.50;;
43809;SDS011;29440;48.208;11.162;2022-12-22T04:15:24;6.20;;;0.80;;
43809;SDS011;29440;48.208;11.162;2022-12-22T04:17:51;1.33;;;0.50;;
43809;SDS011;29440;48.208;11.162;2022-12-22T04:20:17;2.00;;;0.60;;
43809;SDS011;29440;48.208;11.162;2022-12-22T04:22:43;2.40;;;0.50;;
43809;SDS011;29440;48.208;11.162;2022-12-22T04:25:10;2.72;;;0.60;;
43809;SDS011;29440;48.208;11.162;2022-12-22T04:27:36;1.02;;;0.50;;
43809;SDS011;29440;48.208;11.162;2022-12-22T04:30:03;1.95;;;0.30;;
43809;SDS011;29440;48.208;11.162;2022-12-22T04:32:29;1.77;;;0.40;;
43809;SDS011;29440;48.208;11.162;2022-12-22T04:34:55;2.38;;;0.43;;
43809;SDS011;29440;48.208;11.162;2022-12-22T04:37:20;1.77;;;0.40;;
43809;SDS011;29440;48.208;11.162;2022-12-22T04:39:46;1.33;;;0.40;;
43809;SDS011;29440;48.208;11.162;2022-12-22T04:42:11;1.27;;;0.40;;
43809;SDS011;29440;48.208;11.162;2022-12-22T04:44:37;0.80;;;0.40;;
43809;SDS011;29440;48.208;11.162;2022-12-22T04:47:03;0.60;;;0.30;;
43809;SDS011;29440;48.208;11.162;2022-12-22T04:49:28;1.33;;;0.40;;
43809;SDS011;29440;48.208;11.162;2022-12-22T04:51:54;0.38;;;0.30;;
43809;SDS011;29440;48.208;11.162;2022-12-22T04:54:19;0.50;;;0.30;;
43809;SDS011;29440;48.208;11.162;2022-12-22T04:56:45;0.30;;;0.20;;
43809;SDS011;29440;48.208;11.162;2022-12-22T04:59:11;0.43;;;0.30;;
43809;SDS011;29440;48.208;11.162;2022-12-22T05:01:36;1.55;;;0.25;;
43809;SDS011;29440;48.208;11.162;2022-12-22T05:04:02;0.82;;;0.30;;
43809;SDS011;29440;48.208;11.162;2022-12-22T05:06:27;2.40;;;0.40;;
43809;SDS011;29440;48.208;11.162;2022-12-22T05:08:53;0.30;;;0.28;;
43809;SDS011;29440;48.208;11.162;2022-12-22T05:11:19;0.65;;;0.20;;
43809;SDS011;29440;48.208;11.162;2022-12-22T05:13:44;0.45;;;0.32;;
43809;SDS011;29440;48.208;11.162;2022-12-22T05:16:11;0.20;;;0.20;;
43809;SDS011;29440;48.208;11.162;2022-12-22T05:18:38;0.40;;;0.20;;
43809;SDS011;29440;48.208;11.162;2022-12-22T05:21:06;0.75;;;0.30;;
43809;SDS011;29440;48.208;11.162;2022-12-22T05:23:35;0.28;;;0.20;;
43809;SDS011;29440;48.208;11.162;2022-12-22T05:26:00;0.47;;;0.30;;
43809;SDS011;29440;48.208;11.162;2022-12-22T05:28:26;0.40;;;0.20;;
43809;SDS011;29440;48.208;11.162;2022-12-22T05:30:51;0.20;;;0.20;;
43809;SDS011;29440;48.208;11.162;2022-12-22T05:33:18;2.17;;;0.50;;
43809;SDS011;29440;48.208;11.162;2022-12-22T05:35:44;1.08;;;0.40;;
43809;SDS011;29440;48.208;11.162;2022-12-22T05:38:09;0.68;;;0.25;;
43809;SDS011;29440;48.208;11.162;2022-12-22T05:40:35;0.70;;;0.30;;
43809;SDS011;29440;48.208;11.162;2022-12-22T05:43:01;0.40;;;0.30;;
43809;SDS011;29440;48.208;11.162;2022-12-22T05:45:26;1.58;;;0.30;;
43809;SDS011;29440;48.208;11.162;2022-12-22T05:47:52;0.40;;;0.20;;
43809;SDS011;29440;48.208;11.162;2022-12-22T05:50:18;0.40;;;0.20;;
43809;SDS011;29440;48.208;11.162;2022-12-22T05:52:46;0.70;;;0.30;;
43809;SDS011;29440;48.208;11.162;2022-12-22T05:55:12;0.60;;;0.30;;
43809;SDS011;29440;48.208;11.162;2022-12-22T05:57:38;1.20;;;0.30;;
43809;SDS011;29440;48.208;11.162;2022-12-22T06:00:05;0.30;;;0.20;;
43809;SDS011;29440;48.208;11.162;2022-12-22T06:02:33;0.52;;;0.20;;
43809;SDS011;29440;48.208;11.162;2022-12-22T06:04:59;0.20;;;0.10;;
43809;SDS011;29440;48.208;11.162;2022-12-22T06:07:24;0.50;;;0.10;;
43809;SDS011;29440;48.208;11.162;2022-12-22T06:09:50;0.52;;;0.35;;
43809;SDS011;29440;48.208;11.162;2022-12-22T06:12:15;2.47;;;0.43;;
43809;SDS011;29440;48.208;11.162;2022-12-22T06:14:41;0.65;;;0.30;;
43809;SDS011;29440;48.208;11.162;2022-12-22T06:17:07;0.25;;;0.17;;
43809;SDS011;29440;48.208;11.162;2022-12-22T06:19:33;1.10;;;0.20;;
43809;SDS011;29440;48.208;11.162;2022-12-22T06:21:58;0.90;;;0.20;;
43809;SDS011;29440;48.208;11.162;2022-12-22T06:24:24;0.77;;;0.30;;
43809;SDS011;29440;48.208;11.162;2022-12-22T06:26:50;1.27;;;0.30;;
43809;SDS011;29440;48.208;11.162;2022-12-22T06:29:15;0.40;;;0.20;;
43809;SDS011;29440;48.208;11.162;2022-12-22T06:31:41;0.40;;;0.20;;
43809;SDS011;29440;48.208;11.162;2022-12-22T06:34:07;1.17;;;0.30;;
43809;SDS011;29440;48.208;11.162;2022-12-22T06:36:34;0.90;;;0.30;;
43809;SDS011;29440;48.208;11.162;2022-12-22T06:39:00;0.63;;;0.30;;
43809;SDS011;29440;48.208;11.162;2022-12-22T06:41:25;1.60;;;0.40;;
43809;SDS011;29440;48.208;11.162;2022-12-22T06:44:09;1.52;;;0.40;;
43809;SDS011;29440;48.208;11.162;2022-12-22T06:46:35;1.42;;;0.30;;
43809;SDS011;29440;48.208;11.162;2022-12-22T06:49:01;0.70;;;0.30;;
43809;SDS011;29440;48.208;11.162;2022-12-22T06:51:26;2.38;;;0.40;;
43809;SDS011;29440;48.208;11.162;2022-12-22T06:53:52;0.55;;;0.52;;
43809;SDS011;29440;48.208;11.162;2022-12-22T06:56:17;1.48;;;0.28;;
43809;SDS011;29440;48.208;11.162;2022-12-22T06:58:43;0.82;;;0.22;;
43809;SDS011;29440;48.208;11.162;2022-12-22T07:01:08;1.17;;;0.30;;
43809;SDS011;29440;48.208;11.162;2022-12-22T07:03:34;1.73;;;0.20;;
43809;SDS011;29440;48.208;11.162;2022-12-22T07:06:00;1.77;;;0.30;;
43809;SDS011;29440;48.208;11.162;2022-12-22T07:08:25;2.20;;;0.63;;
43809;SDS011;29440;48.208;11.162;2022-12-22T07:10:51;1.48;;;0.60;;
43809;SDS011;29440;48.208;11.162;2022-12-22T07:13:23;0.30;;;0.20;;
43809;SDS011;29440;48.208;11.162;2022-12-22T07:15:51;1.42;;;0.28;;
43809;SDS011;29440;48.208;11.162;2022-12-22T07:18:17;0.60;;;0.20;;
43809;SDS011;29440;48.208;11.162;2022-12-22T07:20:43;2.30;;;0.22;;
43809;SDS011;29440;48.208;11.162;2022-12-22T07:23:09;4.45;;;0.40;;
43809;SDS011;29440;48.208;11.162;2022-12-22T07:25:35;2.00;;;0.40;;
43809;SDS011;29440;48.208;11.162;2022-12-22T07:28:00;2.35;;;0.35;;
43809;SDS011;29440;48.208;11.162;2022-12-22T07:30:26;1.90;;;0.50;;
43809;SDS011;29440;48.208;11.162;2022-12-22T07:32:52;1.70;;;0.32;;
43809;SDS011;29440;48.208;11.162;2022-12-22T07:35:17;2.45;;;0.60;;
43809;SDS011;29440;48.208;11.162;2022-12-22T07:37:43;2.25;;;0.40;;
43809;SDS011;29440;48.208;11.162;2022-12-22T07:40:09;2.65;;;0.30;;
43809;SDS011;29440;48.208;11.162;2022-12-22T07:42:34;1.55;;;0.47;;
43809;SDS011;29440;48.208;11.162;2022-12-22T07:45:10;1.88;;;0.40;;
43809;SDS011;29440;48.208;11.162;2022-12-22T07:47:35;0.43;;;0.30;;
43809;SDS011;29440;48.208;11.162;2022-12-22T07:50:01;1.85;;;0.40;;
43809;SDS011;29440;48.208;11.162;2022-12-22T07:52:45;1.85;;;0.40;;
43809;SDS011;29440;48.208;11.162;2022-12-22T07:55:11;0.90;;;0.30;;
43809;SDS011;29440;48.208;11.162;2022-12-22T07:57:38;1.88;;;0.30;;
43809;SDS011;29440;48.208;11.162;2022-12-22T08:00:03;1.85;;;0.40;;
43809;SDS011;29440;48.208;11.162;2022-12-22T08:02:31;1.95;;;0.35;;
43809;SDS011;29440;48.208;11.162;2022-12-22T08:04:57;3.22;;;0.40;;
43809;SDS011;29440;48.208;11.162;2022-12-22T08:07:23;2.33;;;0.43;;
43809;SDS011;29440;48.208;11.162;2022-12-22T08:09:48;1.98;;;0.40;;
43809;SDS011;29440;48.208;11.162;2022-12-22T08:12:14;1.33;;;0.25;;
43809;SDS011;29440;48.208;11.162;2022-12-22T08:14:39;4.05;;;0.50;;
43809;SDS011;29440;48.208;11.162;2022-12-22T08:17:09;1.92;;;0.40;;
43809;SDS011;29440;48.208;11.162;2022-12-22T08:19:35;1.40;;;0.50;;
43809;SDS011;29440;48.208;11.162;2022-12-22T08:22:01;3.33;;;0.50;;
43809;SDS011;29440;48.208;11.162;2022-12-22T08:24:27;3.58;;;0.40;;
43809;SDS011;29440;48.208;11.162;2022-12-22T08:26:54;0.85;;;0.30;;
43809;SDS011;29440;48.208;11.162;2022-12-22T08:29:31;3.08;;;0.50;;
43809;SDS011;29440;48.208;11.162;2022-12-22T08:32:10;2.78;;;0.50;;
43809;SDS011;29440;48.208;11.162;2022-12-22T08:34:37;5.07;;;0.30;;
43809;SDS011;29440;48.208;11.162;2022-12-22T08:37:04;4.03;;;0.52;;
43809;SDS011;29440;48.208;11.162;2022-12-22T08:39:31;2.75;;;0.40;;
43809;SDS011;29440;48.208;11.162;2022-12-22T08:41:59;4.32;;;0.50;;
43809;SDS011;29440;48.208;11.162;2022-12-22T08:44:27;2.92;;;0.50;;
43809;SDS011;29440;48.208;11.162;2022-12-22T08:46:54;2.08;;;0.55;;
43809;SDS011;29440;48.208;11.162;2022-12-22T08:49:21;5.53;;;0.40;;
43809;SDS011;29440;48.208;11.162;2022-12-22T08:51:48;2.03;;;0.30;;
43809;SDS011;29440;48.208;11.162;2022-12-22T08:54:14;2.65;;;0.30;;
43809;SDS011;29440;48.208;11.162;2022-12-22T08:56:40;3.25;;;0.40;;
43809;SDS011;29440;48.208;11.162;2022-12-22T08:59:06;3.88;;;0.60;;
43809;SDS011;29440;48.208;11.162;2022-12-22T09:01:34;1.48;;;0.40;;
43809;SDS011;29440;48.208;11.162;2022-12-22T09:04:00;1.38;;;0.40;;
43809;SDS011;29440;48.208;11.162;2022-12-22T09:06:27;1.70;;;0.40;;
43809;SDS011;29440;48.208;11.162;2022-12-22T09:08:57;1.80;;;0.45;;
43809;SDS011;29440;48.208;11.162;2022-12-22T09:11:24;2.17;;;0.50;;
43809;SDS011;29440;48.208;11.162;2022-12-22T09:13:50;3.40;;;0.80;;
43809;SDS011;29440;48.208;11.162;2022-12-22T09:16:17;2.97;;;0.40;;
43809;SDS011;29440;48.208;11.162;2022-12-22T09:18:43;1.05;;;0.20;;
43809;SDS011;29440;48.208;11.162;2022-12-22T09:21:09;2.83;;;0.30;;
43809;SDS011;29440;48.208;11.162;2022-12-22T09:23:35;2.40;;;0.30;;
43809;SDS011;29440;48.208;11.162;2022-12-22T09:26:05;1.92;;;0.43;;
43809;SDS011;29440;48.208;11.162;2022-12-22T09:28:34;1.88;;;0.40;;
43809;SDS011;29440;48.208;11.162;2022-12-22T09:31:01;2.85;;;0.50;;
43809;SDS011;29440;48.208;11.162;2022-12-22T09:33:28;0.93;;;0.30;;
43809;SDS011;29440;48.208;11.162;2022-12-22T09:35:54;1.13;;;0.30;;
43809;SDS011;29440;48.208;11.162;2022-12-22T09:38:19;2.83;;;0.40;;
43809;SDS011;29440;48.208;11.162;2022-12-22T09:40:45;2.47;;;0.30;;
43809;SDS011;29440;48.208;11.162;2022-12-22T09:43:11;2.60;;;0.28;;
43809;SDS011;29440;48.208;11.162;2022-12-22T09:45:40;1.35;;;0.22;;
43809;SDS011;29440;48.208;11.162;2022-12-22T09:48:07;2.58;;;0.40;;
43809;SDS011;29440;48.208;11.162;2022-12-22T09:50:37;2.10;;;0.40;;
43809;SDS011;29440;48.208;11.162;2022-12-22T09:53:04;3.50;;;0.30;;
43809;SDS011;29440;48.208;11.162;2022-12-22T09:55:39;1.80;;;0.40;;
43809;SDS011;29440;48.208;11.162;2022-12-22T10:00:41;1.02;;;0.30;;
43809;SDS011;29440;48.208;11.162;2022-12-22T10:03:22;0.93;;;0.32;;
43809;SDS011;29440;48.208;11.162;2022-12-22T10:06:03;2.35;;;0.38;;
43809;SDS011;29440;48.208;11.162;2022-12-22T10:08:44;2.30;;;0.25;;
43809;SDS011;29440;48.208;11.162;2022-12-22T10:11:13;0.55;;;0.30;;
43809;SDS011;29440;48.208;11.162;2022-12-22T10:13:41;3.03;;;0.50;;
43809;SDS011;29440;48.208;11.162;2022-12-22T10:16:24;2.35;;;0.30;;
43809;SDS011;29440;48.208;11.162;2022-12-22T10:21:21;2.05;;;0.35;;
43809;SDS011;29440;48.208;11.162;2022-12-22T10:23:47;1.52;;;0.43;;
43809;SDS011;29440;48.208;11.162;2022-12-22T10:26:23;3.88;;;0.30;;
43809;SDS011;29440;48.208;11.162;2022-12-22T10:29:08;2.30;;;0.30;;
43809;SDS011;29440;48.208;11.162;2022-12-22T10:31:36;1.58;;;0.43;;
43809;SDS011;29440;48.208;11.162;2022-12-22T10:34:18;4.93;;;0.57;;
43809;SDS011;29440;48.208;11.162;2022-12-22T10:36:48;1.63;;;0.30;;
43809;SDS011;29440;48.208;11.162;2022-12-22T10:39:34;0.47;;;0.20;;
43809;SDS011;29440;48.208;11.162;2022-12-22T10:42:09;1.92;;;0.40;;
43809;SDS011;29440;48.208;11.162;2022-12-22T10:44:43;2.75;;;0.38;;
43809;SDS011;29440;48.208;11.162;2022-12-22T10:47:16;1.10;;;0.20;;
43809;SDS011;29440;48.208;11.162;2022-12-22T10:49:45;2.65;;;0.30;;
43809;SDS011;29440;48.208;11.162;2022-12-22T10:52:18;3.08;;;0.55;;
43809;SDS011;29440;48.208;11.162;2022-12-22T10:54:47;4.00;;;0.50;;
43809;SDS011;29440;48.208;11.162;2022-12-22T10:59:55;3.47;;;0.65;;
43809;SDS011;29440;48.208;11.162;2022-12-22T11:05:00;3.63;;;0.80;;
43809;SDS011;29440;48.208;11.162;2022-12-22T11:07:31;4.55;;;0.47;;
43809;SDS011;29440;48.208;11.162;2022-12-22T11:09:58;1.58;;;0.47;;
43809;SDS011;29440;48.208;11.162;2022-12-22T11:14:58;1.27;;;0.30;;
43809;SDS011;29440;48.208;11.162;2022-12-22T11:17:40;3.30;;;0.40;;
43809;SDS011;29440;48.208;11.162;2022-12-22T11:23:43;3.55;;;0.88;;
43809;SDS011;29440;48.208;11.162;2022-12-22T11:37:46;3.70;;;0.40;;
43809;SDS011;29440;48.208;11.162;2022-12-22T12:05:14;5.03;;;0.40;;
43809;SDS011;29440;48.208;11.162;2022-12-22T12:10:57;7.47;;;0.50;;
43809;SDS011;29440;48.208;11.162;2022-12-22T12:13:43;3.80;;;0.50;;
43809;SDS011;29440;48.208;11.162;2022-12-22T12:16:28;8.23;;;0.88;;
43809;SDS011;29440;48.208;11.162;2022-12-22T12:21:29;2.08;;;0.50;;
43809;SDS011;29440;48.208;11.162;2022-12-22T12:29:23;5.95;;;0.50;;
43809;SDS011;29440;48.208;11.162;2022-12-22T12:31:57;5.75;;;0.75;;
43809;SDS011;29440;48.208;11.162;2022-12-22T12:34:30;5.15;;;0.70;;
43809;SDS011;29440;48.208;11.162;2022-12-22T12:42:36;4.45;;;0.70;;
43809;SDS011;29440;48.208;11.162;2022-12-22T12:50:49;3.53;;;0.52;;
43809;SDS011;29440;48.208;11.162;2022-12-22T12:53:16;3.50;;;0.50;;
43809;SDS011;29440;48.208;11.162;2022-12-22T12:58:45;5.13;;;0.57;;
43809;SDS011;29440;48.208;11.162;2022-12-22T13:03:50;6.25;;;0.77;;
43809;SDS011;29440;48.208;11.162;2022-12-22T13:09:10;6.00;;;0.80;;
43809;SDS011;29440;48.208;11.162;2022-12-22T13:11:48;4.05;;;0.60;;
43809;SDS011;29440;48.208;11.162;2022-12-22T13:20:02;2.75;;;0.40;;
43809;SDS011;29440;48.208;11.162;2022-12-22T13:22:28;4.32;;;0.52;;
43809;SDS011;29440;48.208;11.162;2022-12-22T13:24:54;4.00;;;0.38;;
43809;SDS011;29440;48.208;11.162;2022-12-22T13:27:20;5.80;;;1.90;;
43809;SDS011;29440;48.208;11.162;2022-12-22T13:29:46;5.93;;;0.47;;
43809;SDS011;29440;48.208;11.162;2022-12-22T13:32:15;4.70;;;0.50;;
43809;SDS011;29440;48.208;11.162;2022-12-22T13:34:47;3.75;;;0.57;;
43809;SDS011;29440;48.208;11.162;2022-12-22T13:37:39;3.83;;;0.60;;
43809;SDS011;29440;48.208;11.162;2022-12-22T13:42:48;5.82;;;0.88;;
43809;SDS011;29440;48.208;11.162;2022-12-22T13:45:35;3.25;;;0.40;;
43809;SDS011;29440;48.208;11.162;2022-12-22T13:48:25;3.17;;;0.40;;
43809;SDS011;29440;48.208;11.162;2022-12-22T13:51:02;7.95;;;1.17;;
43809;SDS011;29440;48.208;11.162;2022-12-22T13:53:43;7.45;;;0.77;;
43809;SDS011;29440;48.208;11.162;2022-12-22T13:56:12;5.85;;;0.70;;
43809;SDS011;29440;48.208;11.162;2022-12-22T13:58:50;4.85;;;0.70;;
43809;SDS011;29440;48.208;11.162;2022-12-22T14:01:22;2.90;;;0.77;;
43809;SDS011;29440;48.208;11.162;2022-12-22T14:03:50;5.47;;;0.85;;
43809;SDS011;29440;48.208;11.162;2022-12-22T14:09:13;7.82;;;0.60;;
43809;SDS011;29440;48.208;11.162;2022-12-22T14:12:26;6.03;;;0.60;;
43809;SDS011;29440;48.208;11.162;2022-12-22T14:14:37;3.58;;;0.60;;
43809;SDS011;29440;48.208;11.162;2022-12-22T14:17:14;3.58;;;0.75;;
43809;SDS011;29440;48.208;11.162;2022-12-22T14:19:47;7.35;;;1.10;;
43809;SDS011;29440;48.208;11.162;2022-12-22T14:22:17;10.15;;;0.85;;
43809;SDS011;29440;48.208;11.162;2022-12-22T14:24:47;7.13;;;0.93;;
43809;SDS011;29440;48.208;11.162;2022-12-22T14:30:06;7.30;;;1.05;;
43809;SDS011;29440;48.208;11.162;2022-12-22T14:32:45;7.85;;;0.95;;
43809;SDS011;29440;48.208;11.162;2022-12-22T14:35:20;8.50;;;0.82;;
43809;SDS011;29440;48.208;11.162;2022-12-22T14:37:51;7.55;;;1.70;;
43809;SDS011;29440;48.208;11.162;2022-12-22T14:40:35;9.50;;;1.55;;
43809;SDS011;29440;48.208;11.162;2022-12-22T14:45:44;10.48;;;1.13;;
43809;SDS011;29440;48.208;11.162;2022-12-22T14:48:15;11.60;;;0.90;;
43809;SDS011;29440;48.208;11.162;2022-12-22T14:50:49;9.30;;;0.75;;
43809;SDS011;29440;48.208;11.162;2022-12-22T14:53:24;6.53;;;0.90;;
43809;SDS011;29440;48.208;11.162;2022-12-22T14:56:01;7.80;;;1.13;;
43809;SDS011;29440;48.208;11.162;2022-12-22T14:58:28;8.07;;;1.02;;
43809;SDS011;29440;48.208;11.162;2022-12-22T15:06:41;6.85;;;1.17;;
43809;SDS011;29440;48.208;11.162;2022-12-22T15:14:14;10.63;;;1.48;;
43809;SDS011;29440;48.208;11.162;2022-12-22T15:16:48;6.28;;;0.70;;
43809;SDS011;29440;48.208;11.162;2022-12-22T15:19:15;4.93;;;1.02;;
43809;SDS011;29440;48.208;11.162;2022-12-22T15:21:50;8.75;;;1.00;;
43809;SDS011;29440;48.208;11.162;2022-12-22T15:24:16;10.55;;;1.80;;
43809;SDS011;29440;48.208;11.162;2022-12-22T15:26:42;12.10;;;1.45;;
43809;SDS011;29440;48.208;11.162;2022-12-22T15:29:08;10.75;;;1.33;;
43809;SDS011;29440;48.208;11.162;2022-12-22T15:31:34;7.82;;;1.20;;
43809;SDS011;29440;48.208;11.162;2022-12-22T15:34:02;7.10;;;1.63;;
43809;SDS011;29440;48.208;11.162;2022-12-22T15:36:34;12.43;;;2.35;;
43809;SDS011;29440;48.208;11.162;2022-12-22T15:38:59;7.95;;;1.35;;
43809;SDS011;29440;48.208;11.162;2022-12-22T15:41:25;9.90;;;0.73;;
43809;SDS011;29440;48.208;11.162;2022-12-22T15:43:50;6.13;;;0.68;;
43809;SDS011;29440;48.208;11.162;2022-12-22T15:46:16;5.05;;;0.73;;
43809;SDS011;29440;48.208;11.162;2022-12-22T15:48:43;7.00;;;2.05;;
43809;SDS011;29440;48.208;11.162;2022-12-22T15:51:15;8.35;;;1.52;;
43809;SDS011;29440;48.208;11.162;2022-12-22T15:53:48;6.85;;;1.33;;
43809;SDS011;29440;48.208;11.162;2022-12-22T15:56:17;3.70;;;1.17;;
43809;SDS011;29440;48.208;11.162;2022-12-22T15:58:49;6.78;;;0.73;;
43809;SDS011;29440;48.208;11.162;2022-12-22T16:01:15;5.82;;;1.08;;
43809;SDS011;29440;48.208;11.162;2022-12-22T16:03:41;6.40;;;1.48;;
43809;SDS011;29440;48.208;11.162;2022-12-22T16:06:13;5.90;;;0.90;;
43809;SDS011;29440;48.208;11.162;2022-12-22T16:08:42;11.65;;;1.10;;
43809;SDS011;29440;48.208;11.162;2022-12-22T16:11:13;4.60;;;0.77;;
43809;SDS011;29440;48.208;11.162;2022-12-22T16:13:39;3.85;;;0.65;;
43809;SDS011;29440;48.208;11.162;2022-12-22T16:16:05;5.47;;;1.30;;
43809;SDS011;29440;48.208;11.162;2022-12-22T16:21:06;5.95;;;0.95;;
43809;SDS011;29440;48.208;11.162;2022-12-22T16:23:42;4.28;;;0.70;;
43809;SDS011;29440;48.208;11.162;2022-12-22T16:26:14;5.88;;;0.98;;
43809;SDS011;29440;48.208;11.162;2022-12-22T16:28:42;6.22;;;0.95;;
43809;SDS011;29440;48.208;11.162;2022-12-22T16:31:14;3.95;;;0.90;;
43809;SDS011;29440;48.208;11.162;2022-12-22T16:33:45;7.28;;;1.00;;
43809;SDS011;29440;48.208;11.162;2022-12-22T16:36:11;7.13;;;0.60;;
43809;SDS011;29440;48.208;11.162;2022-12-22T16:38:39;6.07;;;1.15;;
43809;SDS011;29440;48.208;11.162;2022-12-22T16:41:05;5.10;;;0.80;;
43809;SDS011;29440;48.208;11.162;2022-12-22T16:43:43;6.15;;;0.80;;
43809;SDS011;29440;48.208;11.162;2022-12-22T16:46:13;4.88;;;0.80;;
43809;SDS011;29440;48.208;11.162;2022-12-22T16:48:45;4.38;;;1.10;;
43809;SDS011;29440;48.208;11.162;2022-12-22T16:51:15;4.60;;;1.25;;
43809;SDS011;29440;48.208;11.162;2022-12-22T16:53:43;3.80;;;0.77;;
43809;SDS011;29440;48.208;11.162;2022-12-22T16:56:12;8.50;;;1.02;;
43809;SDS011;29440;48.208;11.162;2022-12-22T16:58:39;5.88;;;1.05;;
43809;SDS011;29440;48.208;11.162;2022-12-22T17:01:04;3.78;;;1.00;;
43809;SDS011;29440;48.208;11.162;2022-12-22T17:06:05;3.92;;;1.40;;
43809;SDS011;29440;48.208;11.162;2022-12-22T17:08:36;6.80;;;1.90;;
43809;SDS011;29440;48.208;11.162;2022-12-22T17:11:15;6.80;;;1.58;;
43809;SDS011;29440;48.208;11.162;2022-12-22T17:13:43;6.80;;;1.33;;
43809;SDS011;29440;48.208;11.162;2022-12-22T17:16:20;5.35;;;1.08;;
43809;SDS011;29440;48.208;11.162;2022-12-22T17:18:47;6.45;;;1.48;;
43809;SDS011;29440;48.208;11.162;2022-12-22T17:21:14;6.55;;;1.20;;